sensor_id;sensor_type;location;lat;lon;timestamp;P1;durP1;ratioP1;P2;durP2;ratioP2
21472;SDS011;10898;48.072;11.682;2023-04-09T00:00:13;11.75;;;9.52;;
21472;SDS011;10898;48.072;11.682;2023-04-09T00:02:15;11.38;;;10.18;;
21472;SDS011;10898;48.072;11.682;2023-04-09T00:04:17;13.48;;;10.50;;
21472;SDS011;10898;48.072;11.682;2023-04-09T00:06:20;13.73;;;10.85;;
21472;SDS011;10898;48.072;11.682;2023-04-09T00:08:22;13.65;;;10.32;;
21472;SDS011;10898;48.072;11.682;2023-04-09T00:10:24;12.82;;;11.15;;
21472;SDS011;10898;48.072;11.682;2023-04-09T00:12:26;14.35;;;10.88;;
21472;SDS011;10898;48.072;11.682;2023-04-09T00:14:30;13.32;;;10.77;;
21472;SDS011;10898;48.072;11.682;2023-04-09T00:16:32;13.45;;;11.45;;
21472;SDS011;10898;48.072;11.682;2023-04-09T00:18:34;12.43;;;10.85;;
21472;SDS011;10898;48.072;11.682;2023-04-09T00:20:37;13.40;;;10.65;;
21472;SDS011;10898;48.072;11.682;2023-04-09T00:22:39;13.75;;;10.40;;
21472;SDS011;10898;48.072;11.682;2023-04-09T00:24:41;12.40;;;10.30;;
21472;SDS011;10898;48.072;11.682;2023-04-09T00:26:43;13.88;;;10.88;;
21472;SDS011;10898;48.072;11.682;2023-04-09T00:30:48;16.20;;;11.02;;
21472;SDS011;10898;48.072;11.682;2023-04-09T00:32:50;14.07;;;10.85;;
21472;SDS011;10898;48.072;11.682;2023-04-09T00:34:53;14.23;;;10.90;;
21472;SDS011;10898;48.072;11.682;2023-04-09T00:36:55;11.68;;;10.45;;
21472;SDS011;10898;48.072;11.682;2023-04-09T00:38:57;13.75;;;11.20;;
21472;SDS011;10898;48.072;11.682;2023-04-09T00:41:00;13.43;;;10.90;;
21472;SDS011;10898;48.072;11.682;2023-04-09T00:43:02;12.45;;;11.15;;
21472;SDS011;10898;48.072;11.682;2023-04-09T00:45:04;13.73;;;10.75;;
21472;SDS011;10898;48.072;11.682;2023-04-09T00:47:07;13.35;;;11.02;;
21472;SDS011;10898;48.072;11.682;2023-04-09T00:49:09;14.15;;;11.85;;
21472;SDS011;10898;48.072;11.682;2023-04-09T00:51:11;12.60;;;10.57;;
21472;SDS011;10898;48.072;11.682;2023-04-09T00:53:13;14.75;;;11.88;;
21472;SDS011;10898;48.072;11.682;2023-04-09T00:55:17;11.75;;;10.52;;
21472;SDS011;10898;48.072;11.682;2023-04-09T00:57:21;12.10;;;10.15;;
21472;SDS011;10898;48.072;11.682;2023-04-09T00:59:24;13.35;;;10.75;;
21472;SDS011;10898;48.072;11.682;2023-04-09T01:01:26;13.05;;;11.23;;
21472;SDS011;10898;48.072;11.682;2023-04-09T01:03:28;13.65;;;11.85;;
21472;SDS011;10898;48.072;11.682;2023-04-09T01:10:07;14.50;;;11.25;;
21472;SDS011;10898;48.072;11.682;2023-04-09T01:14:44;13.20;;;10.77;;
21472;SDS011;10898;48.072;11.682;2023-04-09T01:16:52;15.23;;;11.52;;
21472;SDS011;10898;48.072;11.682;2023-04-09T01:19:00;15.43;;;11.23;;
21472;SDS011;10898;48.072;11.682;2023-04-09T01:21:05;12.93;;;10.68;;
21472;SDS011;10898;48.072;11.682;2023-04-09T01:30:13;13.18;;;10.95;;
21472;SDS011;10898;48.072;11.682;2023-04-09T01:32:17;13.77;;;10.98;;
21472;SDS011;10898;48.072;11.682;2023-04-09T01:34:20;16.60;;;11.32;;
21472;SDS011;10898;48.072;11.682;2023-04-09T01:36:23;14.35;;;10.88;;
21472;SDS011;10898;48.072;11.682;2023-04-09T01:38:25;15.25;;;10.82;;
21472;SDS011;10898;48.072;11.682;2023-04-09T01:40:29;15.68;;;11.75;;
21472;SDS011;10898;48.072;11.682;2023-04-09T01:42:31;14.65;;;12.38;;
21472;SDS011;10898;48.072;11.682;2023-04-09T01:44:34;14.93;;;10.85;;
21472;SDS011;10898;48.072;11.682;2023-04-09T01:46:38;14.10;;;10.80;;
21472;SDS011;10898;48.072;11.682;2023-04-09T01:48:40;13.45;;;10.63;;
21472;SDS011;10898;48.072;11.682;2023-04-09T01:50:43;13.40;;;11.10;;
21472;SDS011;10898;48.072;11.682;2023-04-09T01:52:46;15.75;;;11.70;;
21472;SDS011;10898;48.072;11.682;2023-04-09T01:54:48;16.35;;;12.02;;
21472;SDS011;10898;48.072;11.682;2023-04-09T01:56:50;16.83;;;12.43;;
21472;SDS011;10898;48.072;11.682;2023-04-09T01:58:52;14.27;;;11.80;;
21472;SDS011;10898;48.072;11.682;2023-04-09T02:05:03;14.88;;;12.15;;
21472;SDS011;10898;48.072;11.682;2023-04-09T02:07:13;16.35;;;12.18;;
21472;SDS011;10898;48.072;11.682;2023-04-09T02:09:17;15.82;;;12.23;;
21472;SDS011;10898;48.072;11.682;2023-04-09T02:11:20;16.20;;;12.85;;
21472;SDS011;10898;48.072;11.682;2023-04-09T02:13:24;15.48;;;12.30;;
21472;SDS011;10898;48.072;11.682;2023-04-09T02:15:27;17.17;;;12.68;;
21472;SDS011;10898;48.072;11.682;2023-04-09T02:17:31;15.18;;;12.63;;
21472;SDS011;10898;48.072;11.682;2023-04-09T02:19:40;17.15;;;12.98;;
21472;SDS011;10898;48.072;11.682;2023-04-09T02:21:43;15.02;;;12.00;;
21472;SDS011;10898;48.072;11.682;2023-04-09T02:23:45;16.17;;;12.73;;
21472;SDS011;10898;48.072;11.682;2023-04-09T02:25:47;14.38;;;11.90;;
21472;SDS011;10898;48.072;11.682;2023-04-09T02:29:52;15.98;;;12.45;;
21472;SDS011;10898;48.072;11.682;2023-04-09T02:31:54;15.23;;;12.25;;
21472;SDS011;10898;48.072;11.682;2023-04-09T02:33:56;15.15;;;12.30;;
21472;SDS011;10898;48.072;11.682;2023-04-09T02:35:58;16.58;;;11.98;;
21472;SDS011;10898;48.072;11.682;2023-04-09T02:38:01;16.15;;;12.38;;
21472;SDS011;10898;48.072;11.682;2023-04-09T02:40:03;15.65;;;11.73;;
21472;SDS011;10898;48.072;11.682;2023-04-09T02:42:06;17.38;;;12.57;;
21472;SDS011;10898;48.072;11.682;2023-04-09T02:44:08;15.85;;;12.70;;
21472;SDS011;10898;48.072;11.682;2023-04-09T02:46:10;14.02;;;11.35;;
21472;SDS011;10898;48.072;11.682;2023-04-09T02:48:12;15.20;;;12.18;;
21472;SDS011;10898;48.072;11.682;2023-04-09T02:50:15;13.25;;;11.43;;
21472;SDS011;10898;48.072;11.682;2023-04-09T02:54:20;14.93;;;12.02;;
21472;SDS011;10898;48.072;11.682;2023-04-09T02:56:22;12.95;;;10.90;;
21472;SDS011;10898;48.072;11.682;2023-04-09T02:58:24;16.45;;;12.55;;
21472;SDS011;10898;48.072;11.682;2023-04-09T03:00:26;18.08;;;12.02;;
21472;SDS011;10898;48.072;11.682;2023-04-09T03:02:29;13.77;;;11.45;;
21472;SDS011;10898;48.072;11.682;2023-04-09T03:04:31;16.20;;;12.63;;
21472;SDS011;10898;48.072;11.682;2023-04-09T03:06:33;16.23;;;13.02;;
21472;SDS011;10898;48.072;11.682;2023-04-09T03:08:35;15.52;;;12.65;;
21472;SDS011;10898;48.072;11.682;2023-04-09T03:10:38;17.55;;;13.57;;
21472;SDS011;10898;48.072;11.682;2023-04-09T03:12:40;19.80;;;14.73;;
21472;SDS011;10898;48.072;11.682;2023-04-09T03:14:44;18.58;;;14.20;;
21472;SDS011;10898;48.072;11.682;2023-04-09T03:16:50;18.60;;;14.55;;
21472;SDS011;10898;48.072;11.682;2023-04-09T03:18:53;20.05;;;14.65;;
21472;SDS011;10898;48.072;11.682;2023-04-09T03:20:55;18.25;;;14.25;;
21472;SDS011;10898;48.072;11.682;2023-04-09T03:22:57;18.85;;;15.10;;
21472;SDS011;10898;48.072;11.682;2023-04-09T03:24:59;19.80;;;14.68;;
21472;SDS011;10898;48.072;11.682;2023-04-09T03:27:01;21.58;;;15.52;;
21472;SDS011;10898;48.072;11.682;2023-04-09T03:29:05;21.00;;;15.43;;
21472;SDS011;10898;48.072;11.682;2023-04-09T03:31:07;24.17;;;16.95;;
21472;SDS011;10898;48.072;11.682;2023-04-09T03:33:09;21.17;;;15.57;;
21472;SDS011;10898;48.072;11.682;2023-04-09T03:35:13;18.48;;;14.98;;
21472;SDS011;10898;48.072;11.682;2023-04-09T03:37:15;21.05;;;14.88;;
21472;SDS011;10898;48.072;11.682;2023-04-09T03:39:17;19.77;;;15.85;;
21472;SDS011;10898;48.072;11.682;2023-04-09T03:41:20;19.80;;;14.63;;
21472;SDS011;10898;48.072;11.682;2023-04-09T03:43:22;21.75;;;15.70;;
21472;SDS011;10898;48.072;11.682;2023-04-09T03:45:24;20.70;;;14.73;;
21472;SDS011;10898;48.072;11.682;2023-04-09T03:47:26;20.10;;;15.05;;
21472;SDS011;10898;48.072;11.682;2023-04-09T03:49:29;18.45;;;14.07;;
21472;SDS011;10898;48.072;11.682;2023-04-09T03:51:31;18.48;;;13.85;;
21472;SDS011;10898;48.072;11.682;2023-04-09T03:53:33;18.33;;;14.07;;
21472;SDS011;10898;48.072;11.682;2023-04-09T03:55:36;16.17;;;13.05;;
21472;SDS011;10898;48.072;11.682;2023-04-09T03:57:38;16.10;;;12.82;;
21472;SDS011;10898;48.072;11.682;2023-04-09T03:59:40;17.73;;;13.07;;
21472;SDS011;10898;48.072;11.682;2023-04-09T04:01:42;16.95;;;12.85;;
21472;SDS011;10898;48.072;11.682;2023-04-09T04:03:45;15.63;;;12.20;;
21472;SDS011;10898;48.072;11.682;2023-04-09T04:05:47;17.25;;;12.55;;
21472;SDS011;10898;48.072;11.682;2023-04-09T04:07:56;16.80;;;12.23;;
21472;SDS011;10898;48.072;11.682;2023-04-09T04:09:58;15.50;;;12.40;;
21472;SDS011;10898;48.072;11.682;2023-04-09T04:12:01;17.27;;;13.23;;
21472;SDS011;10898;48.072;11.682;2023-04-09T04:14:03;17.25;;;13.82;;
21472;SDS011;10898;48.072;11.682;2023-04-09T04:16:06;15.10;;;12.05;;
21472;SDS011;10898;48.072;11.682;2023-04-09T04:18:09;15.38;;;12.15;;
21472;SDS011;10898;48.072;11.682;2023-04-09T04:20:11;17.15;;;12.50;;
21472;SDS011;10898;48.072;11.682;2023-04-09T04:22:13;16.30;;;12.05;;
21472;SDS011;10898;48.072;11.682;2023-04-09T04:24:16;14.57;;;11.82;;
21472;SDS011;10898;48.072;11.682;2023-04-09T04:26:18;16.83;;;13.07;;
21472;SDS011;10898;48.072;11.682;2023-04-09T04:28:20;16.35;;;12.55;;
21472;SDS011;10898;48.072;11.682;2023-04-09T04:30:22;16.50;;;13.23;;
21472;SDS011;10898;48.072;11.682;2023-04-09T04:32:25;16.50;;;12.82;;
21472;SDS011;10898;48.072;11.682;2023-04-09T04:36:29;17.38;;;12.75;;
21472;SDS011;10898;48.072;11.682;2023-04-09T04:38:32;19.80;;;13.43;;
21472;SDS011;10898;48.072;11.682;2023-04-09T04:40:34;17.15;;;12.45;;
21472;SDS011;10898;48.072;11.682;2023-04-09T04:42:37;18.08;;;13.32;;
21472;SDS011;10898;48.072;11.682;2023-04-09T04:44:39;16.08;;;12.80;;
21472;SDS011;10898;48.072;11.682;2023-04-09T04:46:41;18.35;;;13.85;;
21472;SDS011;10898;48.072;11.682;2023-04-09T04:48:43;20.50;;;15.00;;
21472;SDS011;10898;48.072;11.682;2023-04-09T04:50:45;18.88;;;14.57;;
21472;SDS011;10898;48.072;11.682;2023-04-09T04:52:47;23.77;;;15.27;;
21472;SDS011;10898;48.072;11.682;2023-04-09T04:54:50;19.10;;;14.45;;
21472;SDS011;10898;48.072;11.682;2023-04-09T04:56:52;19.98;;;15.23;;
21472;SDS011;10898;48.072;11.682;2023-04-09T04:58:54;20.42;;;15.00;;
21472;SDS011;10898;48.072;11.682;2023-04-09T05:00:56;23.17;;;16.88;;
21472;SDS011;10898;48.072;11.682;2023-04-09T05:02:58;21.77;;;15.60;;
21472;SDS011;10898;48.072;11.682;2023-04-09T05:05:01;24.90;;;15.95;;
21472;SDS011;10898;48.072;11.682;2023-04-09T05:07:03;19.77;;;15.40;;
21472;SDS011;10898;48.072;11.682;2023-04-09T05:09:05;21.42;;;15.82;;
21472;SDS011;10898;48.072;11.682;2023-04-09T05:11:10;21.73;;;15.55;;
21472;SDS011;10898;48.072;11.682;2023-04-09T05:13:12;20.63;;;14.57;;
21472;SDS011;10898;48.072;11.682;2023-04-09T05:15:15;19.38;;;14.60;;
21472;SDS011;10898;48.072;11.682;2023-04-09T05:17:17;20.90;;;15.32;;
21472;SDS011;10898;48.072;11.682;2023-04-09T05:19:19;22.33;;;15.32;;
21472;SDS011;10898;48.072;11.682;2023-04-09T05:21:21;20.85;;;15.20;;
21472;SDS011;10898;48.072;11.682;2023-04-09T05:23:23;20.90;;;15.50;;
21472;SDS011;10898;48.072;11.682;2023-04-09T05:25:26;21.48;;;15.07;;
21472;SDS011;10898;48.072;11.682;2023-04-09T05:27:28;19.42;;;14.48;;
21472;SDS011;10898;48.072;11.682;2023-04-09T05:29:30;19.60;;;14.75;;
21472;SDS011;10898;48.072;11.682;2023-04-09T05:31:33;24.70;;;16.50;;
21472;SDS011;10898;48.072;11.682;2023-04-09T05:33:36;21.13;;;14.45;;
21472;SDS011;10898;48.072;11.682;2023-04-09T05:35:38;21.52;;;15.60;;
21472;SDS011;10898;48.072;11.682;2023-04-09T05:37:40;19.83;;;14.32;;
21472;SDS011;10898;48.072;11.682;2023-04-09T05:39:42;23.05;;;15.25;;
21472;SDS011;10898;48.072;11.682;2023-04-09T05:41:45;21.92;;;16.05;;
21472;SDS011;10898;48.072;11.682;2023-04-09T05:43:47;23.40;;;16.60;;
21472;SDS011;10898;48.072;11.682;2023-04-09T05:45:49;22.88;;;16.40;;
21472;SDS011;10898;48.072;11.682;2023-04-09T05:47:51;21.55;;;15.93;;
21472;SDS011;10898;48.072;11.682;2023-04-09T05:49:54;22.70;;;15.65;;
21472;SDS011;10898;48.072;11.682;2023-04-09T05:51:56;23.80;;;16.23;;
21472;SDS011;10898;48.072;11.682;2023-04-09T05:53:58;24.33;;;17.85;;
21472;SDS011;10898;48.072;11.682;2023-04-09T05:56:00;25.42;;;18.00;;
21472;SDS011;10898;48.072;11.682;2023-04-09T05:58:02;23.70;;;16.77;;
21472;SDS011;10898;48.072;11.682;2023-04-09T06:00:05;26.58;;;18.08;;
21472;SDS011;10898;48.072;11.682;2023-04-09T06:02:08;25.30;;;17.55;;
21472;SDS011;10898;48.072;11.682;2023-04-09T06:04:10;25.95;;;17.88;;
21472;SDS011;10898;48.072;11.682;2023-04-09T06:06:13;25.60;;;18.95;;
21472;SDS011;10898;48.072;11.682;2023-04-09T06:08:15;24.73;;;18.17;;
21472;SDS011;10898;48.072;11.682;2023-04-09T06:10:17;28.67;;;19.85;;
21472;SDS011;10898;48.072;11.682;2023-04-09T06:12:19;27.13;;;18.52;;
21472;SDS011;10898;48.072;11.682;2023-04-09T06:14:22;27.50;;;19.17;;
21472;SDS011;10898;48.072;11.682;2023-04-09T06:16:24;28.27;;;19.30;;
21472;SDS011;10898;48.072;11.682;2023-04-09T06:18:26;26.52;;;18.63;;
21472;SDS011;10898;48.072;11.682;2023-04-09T06:20:28;26.42;;;19.77;;
21472;SDS011;10898;48.072;11.682;2023-04-09T06:22:31;26.83;;;19.02;;
21472;SDS011;10898;48.072;11.682;2023-04-09T06:24:33;28.42;;;19.77;;
21472;SDS011;10898;48.072;11.682;2023-04-09T06:26:35;27.27;;;18.25;;
21472;SDS011;10898;48.072;11.682;2023-04-09T06:28:38;26.17;;;19.20;;
21472;SDS011;10898;48.072;11.682;2023-04-09T06:30:40;29.52;;;20.13;;
21472;SDS011;10898;48.072;11.682;2023-04-09T06:32:42;27.92;;;19.58;;
21472;SDS011;10898;48.072;11.682;2023-04-09T06:36:57;28.65;;;18.60;;
21472;SDS011;10898;48.072;11.682;2023-04-09T06:38:59;25.83;;;18.17;;
21472;SDS011;10898;48.072;11.682;2023-04-09T06:41:01;27.98;;;19.33;;
21472;SDS011;10898;48.072;11.682;2023-04-09T06:43:06;24.38;;;18.20;;
21472;SDS011;10898;48.072;11.682;2023-04-09T06:45:09;22.85;;;17.48;;
21472;SDS011;10898;48.072;11.682;2023-04-09T06:47:12;25.27;;;18.23;;
21472;SDS011;10898;48.072;11.682;2023-04-09T06:49:14;23.30;;;17.48;;
21472;SDS011;10898;48.072;11.682;2023-04-09T06:51:16;22.75;;;16.05;;
21472;SDS011;10898;48.072;11.682;2023-04-09T06:53:18;20.92;;;15.23;;
21472;SDS011;10898;48.072;11.682;2023-04-09T06:55:21;20.88;;;15.43;;
21472;SDS011;10898;48.072;11.682;2023-04-09T06:57:23;21.60;;;15.98;;
21472;SDS011;10898;48.072;11.682;2023-04-09T06:59:25;22.05;;;16.02;;
21472;SDS011;10898;48.072;11.682;2023-04-09T07:01:27;19.50;;;15.85;;
21472;SDS011;10898;48.072;11.682;2023-04-09T07:03:30;21.48;;;15.82;;
21472;SDS011;10898;48.072;11.682;2023-04-09T07:05:32;19.67;;;15.18;;
21472;SDS011;10898;48.072;11.682;2023-04-09T07:07:34;19.13;;;14.70;;
21472;SDS011;10898;48.072;11.682;2023-04-09T07:09:36;20.20;;;14.32;;
21472;SDS011;10898;48.072;11.682;2023-04-09T07:11:39;17.27;;;13.93;;
21472;SDS011;10898;48.072;11.682;2023-04-09T07:13:41;16.80;;;13.02;;
21472;SDS011;10898;48.072;11.682;2023-04-09T07:15:43;16.70;;;13.57;;
21472;SDS011;10898;48.072;11.682;2023-04-09T07:17:46;17.10;;;13.18;;
21472;SDS011;10898;48.072;11.682;2023-04-09T07:19:48;15.90;;;13.07;;
21472;SDS011;10898;48.072;11.682;2023-04-09T07:21:51;16.65;;;12.88;;
21472;SDS011;10898;48.072;11.682;2023-04-09T07:23:53;17.63;;;13.23;;
21472;SDS011;10898;48.072;11.682;2023-04-09T07:28:00;15.93;;;12.05;;
21472;SDS011;10898;48.072;11.682;2023-04-09T07:30:03;15.20;;;12.23;;
21472;SDS011;10898;48.072;11.682;2023-04-09T07:32:05;14.52;;;11.98;;
21472;SDS011;10898;48.072;11.682;2023-04-09T07:34:07;15.07;;;12.25;;
21472;SDS011;10898;48.072;11.682;2023-04-09T07:36:10;13.00;;;11.60;;
21472;SDS011;10898;48.072;11.682;2023-04-09T07:38:12;13.10;;;10.93;;
21472;SDS011;10898;48.072;11.682;2023-04-09T07:40:15;15.02;;;12.75;;
21472;SDS011;10898;48.072;11.682;2023-04-09T07:42:17;15.25;;;12.77;;
21472;SDS011;10898;48.072;11.682;2023-04-09T07:44:19;15.55;;;12.57;;
21472;SDS011;10898;48.072;11.682;2023-04-09T07:46:21;15.75;;;12.23;;
21472;SDS011;10898;48.072;11.682;2023-04-09T07:48:24;12.60;;;11.27;;
21472;SDS011;10898;48.072;11.682;2023-04-09T07:50:28;12.27;;;10.75;;
21472;SDS011;10898;48.072;11.682;2023-04-09T07:52:30;15.27;;;12.40;;
21472;SDS011;10898;48.072;11.682;2023-04-09T07:54:32;13.73;;;11.82;;
21472;SDS011;10898;48.072;11.682;2023-04-09T07:56:35;13.85;;;11.63;;
21472;SDS011;10898;48.072;11.682;2023-04-09T07:58:37;13.27;;;11.45;;
21472;SDS011;10898;48.072;11.682;2023-04-09T08:00:40;14.73;;;12.45;;
21472;SDS011;10898;48.072;11.682;2023-04-09T08:02:42;15.50;;;12.88;;
21472;SDS011;10898;48.072;11.682;2023-04-09T08:04:45;14.30;;;12.18;;
21472;SDS011;10898;48.072;11.682;2023-04-09T08:06:47;12.45;;;11.15;;
21472;SDS011;10898;48.072;11.682;2023-04-09T08:08:53;14.68;;;12.43;;
21472;SDS011;10898;48.072;11.682;2023-04-09T08:10:55;14.77;;;12.98;;
21472;SDS011;10898;48.072;11.682;2023-04-09T08:12:58;15.73;;;13.20;;
21472;SDS011;10898;48.072;11.682;2023-04-09T08:15:00;15.93;;;13.30;;
21472;SDS011;10898;48.072;11.682;2023-04-09T08:17:03;18.15;;;13.88;;
21472;SDS011;10898;48.072;11.682;2023-04-09T08:19:06;15.50;;;12.75;;
21472;SDS011;10898;48.072;11.682;2023-04-09T08:23:11;14.43;;;12.35;;
21472;SDS011;10898;48.072;11.682;2023-04-09T08:25:13;14.93;;;12.63;;
21472;SDS011;10898;48.072;11.682;2023-04-09T08:27:15;14.82;;;12.40;;
21472;SDS011;10898;48.072;11.682;2023-04-09T08:29:18;16.38;;;13.57;;
21472;SDS011;10898;48.072;11.682;2023-04-09T08:31:20;15.68;;;13.00;;
21472;SDS011;10898;48.072;11.682;2023-04-09T08:33:22;15.73;;;12.68;;
21472;SDS011;10898;48.072;11.682;2023-04-09T08:35:24;15.80;;;13.63;;
21472;SDS011;10898;48.072;11.682;2023-04-09T08:37:28;15.95;;;12.82;;
21472;SDS011;10898;48.072;11.682;2023-04-09T08:39:30;14.23;;;11.85;;
21472;SDS011;10898;48.072;11.682;2023-04-09T08:41:32;15.48;;;13.18;;
21472;SDS011;10898;48.072;11.682;2023-04-09T08:43:36;15.18;;;12.73;;
21472;SDS011;10898;48.072;11.682;2023-04-09T08:45:58;13.10;;;11.65;;
21472;SDS011;10898;48.072;11.682;2023-04-09T08:48:01;13.90;;;11.07;;
21472;SDS011;10898;48.072;11.682;2023-04-09T08:50:04;13.32;;;11.35;;
21472;SDS011;10898;48.072;11.682;2023-04-09T08:52:06;12.93;;;11.52;;
21472;SDS011;10898;48.072;11.682;2023-04-09T08:54:08;13.90;;;11.35;;
21472;SDS011;10898;48.072;11.682;2023-04-09T08:56:11;15.13;;;13.00;;
21472;SDS011;10898;48.072;11.682;2023-04-09T08:58:14;13.60;;;11.15;;
21472;SDS011;10898;48.072;11.682;2023-04-09T09:00:16;12.90;;;11.38;;
21472;SDS011;10898;48.072;11.682;2023-04-09T09:02:18;13.02;;;10.88;;
21472;SDS011;10898;48.072;11.682;2023-04-09T09:04:20;13.70;;;11.38;;
21472;SDS011;10898;48.072;11.682;2023-04-09T09:06:23;12.80;;;11.50;;
21472;SDS011;10898;48.072;11.682;2023-04-09T09:08:27;13.50;;;11.57;;
21472;SDS011;10898;48.072;11.682;2023-04-09T09:10:43;13.13;;;11.10;;
21472;SDS011;10898;48.072;11.682;2023-04-09T09:12:46;12.85;;;11.10;;
21472;SDS011;10898;48.072;11.682;2023-04-09T09:14:48;15.77;;;12.50;;
21472;SDS011;10898;48.072;11.682;2023-04-09T09:19:00;13.93;;;12.40;;
21472;SDS011;10898;48.072;11.682;2023-04-09T09:23:12;14.73;;;12.15;;
21472;SDS011;10898;48.072;11.682;2023-04-09T09:25:14;13.98;;;12.48;;
21472;SDS011;10898;48.072;11.682;2023-04-09T09:27:35;14.57;;;12.50;;
21472;SDS011;10898;48.072;11.682;2023-04-09T09:31:45;14.38;;;12.27;;
21472;SDS011;10898;48.072;11.682;2023-04-09T09:33:49;16.20;;;13.18;;
21472;SDS011;10898;48.072;11.682;2023-04-09T09:35:52;15.07;;;13.02;;
21472;SDS011;10898;48.072;11.682;2023-04-09T09:38:01;14.95;;;12.70;;
21472;SDS011;10898;48.072;11.682;2023-04-09T09:40:06;16.30;;;12.93;;
21472;SDS011;10898;48.072;11.682;2023-04-09T09:42:09;14.25;;;12.18;;
21472;SDS011;10898;48.072;11.682;2023-04-09T09:44:12;16.15;;;13.80;;
21472;SDS011;10898;48.072;11.682;2023-04-09T09:46:34;14.95;;;12.82;;
21472;SDS011;10898;48.072;11.682;2023-04-09T09:48:38;14.48;;;12.43;;
21472;SDS011;10898;48.072;11.682;2023-04-09T09:50:41;15.20;;;12.68;;
21472;SDS011;10898;48.072;11.682;2023-04-09T09:52:43;14.00;;;12.52;;
21472;SDS011;10898;48.072;11.682;2023-04-09T09:54:47;13.38;;;11.63;;
21472;SDS011;10898;48.072;11.682;2023-04-09T09:56:51;11.55;;;10.35;;
21472;SDS011;10898;48.072;11.682;2023-04-09T09:58:55;12.07;;;10.77;;
21472;SDS011;10898;48.072;11.682;2023-04-09T10:01:07;12.30;;;10.60;;
21472;SDS011;10898;48.072;11.682;2023-04-09T10:03:13;12.52;;;11.02;;
21472;SDS011;10898;48.072;11.682;2023-04-09T10:05:16;13.07;;;10.82;;
21472;SDS011;10898;48.072;11.682;2023-04-09T10:07:19;12.68;;;11.18;;
21472;SDS011;10898;48.072;11.682;2023-04-09T10:09:23;12.15;;;10.82;;
21472;SDS011;10898;48.072;11.682;2023-04-09T10:11:28;11.48;;;10.25;;
21472;SDS011;10898;48.072;11.682;2023-04-09T10:13:38;12.02;;;10.52;;
21472;SDS011;10898;48.072;11.682;2023-04-09T10:15:40;11.38;;;10.18;;
21472;SDS011;10898;48.072;11.682;2023-04-09T10:17:44;12.20;;;10.75;;
21472;SDS011;10898;48.072;11.682;2023-04-09T10:22:09;12.15;;;10.88;;
21472;SDS011;10898;48.072;11.682;2023-04-09T10:24:11;13.07;;;11.38;;
21472;SDS011;10898;48.072;11.682;2023-04-09T10:26:14;13.60;;;11.73;;
21472;SDS011;10898;48.072;11.682;2023-04-09T10:28:16;12.48;;;11.05;;
21472;SDS011;10898;48.072;11.682;2023-04-09T10:32:34;11.07;;;9.95;;
21472;SDS011;10898;48.072;11.682;2023-04-09T10:34:40;11.98;;;10.70;;
21472;SDS011;10898;48.072;11.682;2023-04-09T10:36:44;10.63;;;9.52;;
21472;SDS011;10898;48.072;11.682;2023-04-09T10:38:47;10.52;;;9.43;;
21472;SDS011;10898;48.072;11.682;2023-04-09T10:40:51;11.57;;;9.80;;
21472;SDS011;10898;48.072;11.682;2023-04-09T10:42:53;12.23;;;10.05;;
21472;SDS011;10898;48.072;11.682;2023-04-09T10:47:06;11.70;;;10.32;;
21472;SDS011;10898;48.072;11.682;2023-04-09T10:51:17;11.30;;;10.20;;
21472;SDS011;10898;48.072;11.682;2023-04-09T10:53:23;10.80;;;9.70;;
21472;SDS011;10898;48.072;11.682;2023-04-09T10:55:29;10.60;;;9.20;;
21472;SDS011;10898;48.072;11.682;2023-04-09T10:59:37;11.77;;;10.43;;
21472;SDS011;10898;48.072;11.682;2023-04-09T11:01:50;10.63;;;9.48;;
21472;SDS011;10898;48.072;11.682;2023-04-09T11:04:15;10.10;;;9.10;;
21472;SDS011;10898;48.072;11.682;2023-04-09T11:06:16;11.27;;;9.53;;
21472;SDS011;10898;48.072;11.682;2023-04-09T11:08:21;10.65;;;9.15;;
21472;SDS011;10898;48.072;11.682;2023-04-09T11:10:24;12.52;;;11.23;;
21472;SDS011;10898;48.072;11.682;2023-04-09T11:12:26;12.82;;;10.77;;
21472;SDS011;10898;48.072;11.682;2023-04-09T11:14:29;11.50;;;10.32;;
21472;SDS011;10898;48.072;11.682;2023-04-09T11:18:34;14.88;;;12.13;;
21472;SDS011;10898;48.072;11.682;2023-04-09T11:20:37;16.67;;;13.77;;
21472;SDS011;10898;48.072;11.682;2023-04-09T11:22:39;15.68;;;13.57;;
21472;SDS011;10898;48.072;11.682;2023-04-09T11:24:42;17.98;;;14.35;;
21472;SDS011;10898;48.072;11.682;2023-04-09T11:26:45;18.35;;;14.55;;
21472;SDS011;10898;48.072;11.682;2023-04-09T11:28:58;18.30;;;14.55;;
21472;SDS011;10898;48.072;11.682;2023-04-09T11:31:05;18.25;;;15.02;;
21472;SDS011;10898;48.072;11.682;2023-04-09T11:33:08;18.55;;;15.48;;
21472;SDS011;10898;48.072;11.682;2023-04-09T11:37:15;19.90;;;15.20;;
21472;SDS011;10898;48.072;11.682;2023-04-09T11:39:18;17.58;;;14.30;;
21472;SDS011;10898;48.072;11.682;2023-04-09T11:41:33;18.08;;;15.10;;
21472;SDS011;10898;48.072;11.682;2023-04-09T11:43:35;16.92;;;14.38;;
21472;SDS011;10898;48.072;11.682;2023-04-09T11:45:37;16.10;;;13.32;;
21472;SDS011;10898;48.072;11.682;2023-04-09T11:47:40;15.02;;;13.43;;
21472;SDS011;10898;48.072;11.682;2023-04-09T11:49:43;20.20;;;14.77;;
21472;SDS011;10898;48.072;11.682;2023-04-09T11:51:47;19.65;;;14.93;;
21472;SDS011;10898;48.072;11.682;2023-04-09T11:53:49;18.25;;;14.50;;
21472;SDS011;10898;48.072;11.682;2023-04-09T11:55:52;16.13;;;14.05;;
21472;SDS011;10898;48.072;11.682;2023-04-09T11:57:57;16.85;;;13.77;;
21472;SDS011;10898;48.072;11.682;2023-04-09T12:00:06;18.27;;;14.60;;
21472;SDS011;10898;48.072;11.682;2023-04-09T12:02:09;17.75;;;14.65;;
21472;SDS011;10898;48.072;11.682;2023-04-09T12:04:17;16.60;;;14.15;;
21472;SDS011;10898;48.072;11.682;2023-04-09T12:06:21;16.08;;;13.02;;
21472;SDS011;10898;48.072;11.682;2023-04-09T12:08:24;17.77;;;14.35;;
21472;SDS011;10898;48.072;11.682;2023-04-09T12:10:28;17.30;;;14.05;;
21472;SDS011;10898;48.072;11.682;2023-04-09T12:12:38;17.33;;;14.23;;
21472;SDS011;10898;48.072;11.682;2023-04-09T12:14:44;16.77;;;14.40;;
21472;SDS011;10898;48.072;11.682;2023-04-09T12:16:49;16.95;;;13.68;;
21472;SDS011;10898;48.072;11.682;2023-04-09T12:18:52;16.00;;;13.25;;
21472;SDS011;10898;48.072;11.682;2023-04-09T12:20:55;15.13;;;12.55;;
21472;SDS011;10898;48.072;11.682;2023-04-09T12:22:58;15.25;;;12.73;;
21472;SDS011;10898;48.072;11.682;2023-04-09T12:25:01;15.27;;;12.52;;
21472;SDS011;10898;48.072;11.682;2023-04-09T12:27:03;15.73;;;12.50;;
21472;SDS011;10898;48.072;11.682;2023-04-09T12:29:05;15.38;;;12.68;;
21472;SDS011;10898;48.072;11.682;2023-04-09T12:31:08;16.15;;;13.32;;
21472;SDS011;10898;48.072;11.682;2023-04-09T12:33:11;14.45;;;12.68;;
21472;SDS011;10898;48.072;11.682;2023-04-09T12:35:13;15.68;;;13.05;;
21472;SDS011;10898;48.072;11.682;2023-04-09T12:37:16;14.40;;;11.73;;
21472;SDS011;10898;48.072;11.682;2023-04-09T12:39:18;15.73;;;12.55;;
21472;SDS011;10898;48.072;11.682;2023-04-09T12:43:23;15.50;;;12.48;;
21472;SDS011;10898;48.072;11.682;2023-04-09T12:45:25;14.75;;;12.05;;